Time;durP1;ratioP1;P1;durP2;ratioP2;P2;SDS_P1;SDS_P2;PMS_P1;PMS_P2;Temp;Humidity;BMP_temperature;BMP_pressure;BME280_temperature;BME280_humidity;BME280_pressure;Samples;Min_cycle;Max_cycle;Signal;HPM_P1;HPM_P2
2022/04/15 00:01:12;;;;;;;10.60;8.70;;;15.40;99.90;;;;;;5013061;28;20245;-67
2022/04/15 00:03:39;;;;;;;13.23;9.00;;;15.40;99.90;;;;;;5014735;28;20255;-68
2022/04/15 00:06:08;;;;;;;10.10;8.17;;;15.40;99.90;;;;;;5012603;28;20244;-67
2022/04/15 00:08:35;;;;;;;9.30;8.30;;;15.40;99.90;;;;;;5012218;28;20467;-67
2022/04/15 00:11:01;;;;;;;9.90;8.87;;;15.40;99.90;;;;;;5015560;28;20459;-66
2022/04/15 00:13:29;;;;;;;10.20;8.93;;;15.30;99.90;;;;;;5012766;28;20562;-66
2022/04/15 00:16:03;;;;;;;10.90;8.57;;;15.30;99.90;;;;;;5017994;28;20456;-66
2022/04/15 00:18:29;;;;;;;11.97;9.30;;;15.30;99.90;;;;;;5010389;28;20464;-65
2022/04/15 00:20:55;;;;;;;15.37;9.30;;;15.30;99.90;;;;;;5011620;28;20477;-66
2022/04/15 00:23:24;;;;;;;10.40;8.40;;;15.30;99.90;;;;;;5006901;28;20312;-66
2022/04/15 00:25:53;;;;;;;10.13;8.97;;;15.20;99.90;;;;;;5015512;28;20472;-65
2022/04/15 00:28:19;;;;;;;15.87;9.70;;;15.20;99.90;;;;;;5014202;28;20483;-66
2022/04/15 00:30:45;;;;;;;10.70;9.27;;;15.20;99.90;;;;;;5012737;28;20455;-67
2022/04/15 00:33:11;;;;;;;10.30;8.17;;;15.20;99.90;;;;;;5013491;28;20460;-67
2022/04/15 00:35:38;;;;;;;9.20;8.30;;;15.10;99.90;;;;;;5008629;28;20925;-67
2022/04/15 00:38:04;;;;;;;9.70;8.70;;;15.10;99.90;;;;;;5013098;28;20225;-66
2022/04/15 00:40:29;;;;;;;8.63;7.80;;;15.00;99.90;;;;;;5010705;28;20602;-65
2022/04/15 00:42:55;;;;;;;8.27;7.47;;;15.00;99.90;;;;;;5012399;28;20909;-68
2022/04/15 00:45:21;;;;;;;12.23;9.67;;;15.00;99.90;;;;;;5013962;28;20251;-67
2022/04/15 00:47:52;;;;;;;15.20;9.20;;;15.00;99.90;;;;;;5015393;28;20221;-67
2022/04/15 00:50:22;;;;;;;10.47;7.97;;;14.90;99.90;;;;;;5011228;28;20225;-68
2022/04/15 00:52:50;;;;;;;10.70;8.30;;;14.80;99.90;;;;;;5011710;28;20431;-66
2022/04/15 00:55:17;;;;;;;9.03;8.13;;;14.90;99.90;;;;;;5013134;28;20455;-67
2022/04/15 00:57:49;;;;;;;8.70;7.80;;;14.90;99.90;;;;;;4996366;28;20467;-64
2022/04/15 01:00:16;;;;;;;12.10;9.60;;;14.90;99.90;;;;;;5024570;28;20524;-68
2022/04/15 01:02:43;;;;;;;12.00;9.50;;;14.80;99.90;;;;;;5016604;28;20444;-66
2022/04/15 01:05:10;;;;;;;9.97;8.97;;;14.80;99.90;;;;;;5014581;28;20440;-66
2022/04/15 01:07:38;;;;;;;11.03;8.73;;;14.70;99.90;;;;;;5010659;28;20456;-67
2022/04/15 01:10:06;;;;;;;9.50;8.20;;;14.70;99.90;;;;;;5012800;28;20510;-67
2022/04/15 01:12:35;;;;;;;10.57;8.57;;;14.70;99.90;;;;;;5015421;28;20448;-67
2022/04/15 01:15:04;;;;;;;11.53;9.53;;;14.70;99.90;;;;;;5020519;28;20448;-66
2022/04/15 01:17:30;;;;;;;10.40;9.20;;;14.70;99.90;;;;;;5012905;28;20534;-67
2022/04/15 01:19:56;;;;;;;10.50;9.00;;;14.60;99.90;;;;;;5022809;28;20471;-66
2022/04/15 01:22:28;;;;;;;11.30;9.87;;;14.60;99.90;;;;;;5032605;28;20290;-67
2022/04/15 01:24:53;;;;;;;13.27;10.30;;;14.50;99.90;;;;;;5020358;28;20227;-64
2022/04/15 01:27:33;;;;;;;15.60;9.70;;;14.50;99.90;;;;;;5010783;28;20448;-68
2022/04/15 01:29:58;;;;;;;11.30;9.80;;;14.50;99.90;;;;;;5012437;28;20670;-66
2022/04/15 01:32:24;;;;;;;10.53;8.90;;;14.40;99.90;;;;;;5016539;28;20459;-66
2022/04/15 01:34:50;;;;;;;9.40;8.40;;;14.50;99.90;;;;;;5019893;28;20741;-66
2022/04/15 01:37:17;;;;;;;10.67;8.90;;;14.40;99.90;;;;;;5010533;28;20304;-66
2022/04/15 01:39:43;;;;;;;10.30;9.10;;;14.50;99.90;;;;;;5016656;28;20592;-67
2022/04/15 01:42:13;;;;;;;15.00;9.80;;;14.40;99.90;;;;;;5028887;28;20464;-67
2022/04/15 01:44:40;;;;;;;10.30;8.80;;;14.50;99.90;;;;;;5010454;28;20460;-67
2022/04/15 01:47:06;;;;;;;13.97;9.27;;;14.40;99.90;;;;;;5016371;28;20539;-67
2022/04/15 01:49:32;;;;;;;11.10;9.97;;;14.30;99.90;;;;;;5013535;28;20498;-67
2022/04/15 01:51:58;;;;;;;11.37;10.20;;;14.30;99.90;;;;;;4999189;28;20884;-66
2022/04/15 01:54:24;;;;;;;12.73;9.50;;;14.30;99.90;;;;;;5024099;28;20225;-67
2022/04/15 01:56:49;;;;;;;15.10;10.93;;;14.20;99.90;;;;;;5016590;28;20291;-67
2022/04/15 01:59:15;;;;;;;11.43;10.23;;;14.20;99.90;;;;;;5012993;28;20228;-64
2022/04/15 02:01:40;;;;;;;17.23;11.30;;;14.20;99.90;;;;;;5011336;28;20241;-66
2022/04/15 02:04:06;;;;;;;12.07;10.07;;;14.20;99.90;;;;;;5031330;28;20270;-67
2022/04/15 02:06:32;;;;;;;15.13;10.27;;;14.20;99.90;;;;;;5023852;28;20764;-65
2022/04/15 02:08:58;;;;;;;11.73;10.00;;;14.20;99.90;;;;;;5013749;28;20589;-67
2022/04/15 02:11:23;;;;;;;13.50;10.63;;;14.10;99.90;;;;;;5013571;28;20289;-66
2022/04/15 02:13:49;;;;;;;15.50;11.33;;;14.10;99.90;;;;;;5029109;28;20228;-66
2022/04/15 02:16:15;;;;;;;11.90;10.17;;;14.10;99.90;;;;;;5019633;28;20217;-67
2022/04/15 02:18:40;;;;;;;15.70;10.87;;;14.10;99.90;;;;;;5015666;28;20280;-67
2022/04/15 02:21:06;;;;;;;13.97;10.90;;;14.10;99.90;;;;;;5016134;28;20248;-67
2022/04/15 02:23:32;;;;;;;13.30;9.90;;;14.10;99.90;;;;;;5015220;28;20267;-67
2022/04/15 02:25:57;;;;;;;16.17;10.43;;;14.10;99.90;;;;;;5009310;28;20237;-67
2022/04/15 02:28:23;;;;;;;12.50;10.70;;;14.10;99.90;;;;;;5003615;28;20308;-66
2022/04/15 02:30:49;;;;;;;11.30;9.20;;;14.20;99.90;;;;;;5029385;28;20288;-64
2022/04/15 02:33:15;;;;;;;14.27;10.47;;;14.20;99.90;;;;;;5024708;28;20220;-68
2022/04/15 02:35:41;;;;;;;13.53;9.90;;;14.20;99.90;;;;;;5029780;28;20231;-67
2022/04/15 02:38:07;;;;;;;9.87;8.97;;;14.20;99.90;;;;;;5029933;28;20455;-66
2022/04/15 02:40:33;;;;;;;11.37;9.20;;;14.20;99.90;;;;;;5018013;28;20221;-68
2022/04/15 02:43:00;;;;;;;12.27;9.60;;;14.20;99.90;;;;;;5024657;28;20606;-66
2022/04/15 02:45:28;;;;;;;13.40;9.57;;;14.20;99.90;;;;;;5029922;28;20240;-68
2022/04/15 02:47:54;;;;;;;10.60;9.07;;;14.20;99.90;;;;;;5017889;28;20501;-69
2022/04/15 02:50:19;;;;;;;11.53;9.60;;;14.20;99.90;;;;;;5013555;28;20871;-70
2022/04/15 02:52:45;;;;;;;11.80;9.60;;;14.20;99.90;;;;;;5026520;28;20310;-69
2022/04/15 02:55:11;;;;;;;11.40;10.10;;;14.20;99.90;;;;;;5011446;28;20227;-69
2022/04/15 02:57:37;;;;;;;12.47;10.60;;;14.20;99.90;;;;;;5009936;28;20240;-69
2022/04/15 03:00:04;;;;;;;14.80;10.73;;;14.10;99.90;;;;;;5010846;28;20240;-69
2022/04/15 03:02:33;;;;;;;12.60;9.80;;;14.20;99.90;;;;;;5019602;28;20272;-69
2022/04/15 03:05:03;;;;;;;12.87;10.20;;;14.10;99.90;;;;;;5015658;28;20551;-70
2022/04/15 03:07:29;;;;;;;14.33;11.47;;;14.00;99.90;;;;;;5010653;28;20471;-70
2022/04/15 03:09:55;;;;;;;17.87;12.43;;;14.00;99.90;;;;;;5031048;28;20454;-69
2022/04/15 03:12:21;;;;;;;14.97;11.27;;;14.00;99.90;;;;;;5017713;28;20240;-68
2022/04/15 03:14:49;;;;;;;15.53;12.13;;;13.90;99.90;;;;;;5015437;28;20221;-69
2022/04/15 03:17:15;;;;;;;15.30;12.67;;;13.90;99.90;;;;;;4993216;28;20563;-70
2022/04/15 03:19:41;;;;;;;16.40;12.70;;;13.80;99.90;;;;;;5014114;28;20469;-69
2022/04/15 03:22:06;;;;;;;15.70;12.80;;;13.70;99.90;;;;;;4999497;28;20233;-69
2022/04/15 03:24:32;;;;;;;16.03;12.07;;;13.70;99.90;;;;;;5014155;28;20220;-71
2022/04/15 03:26:58;;;;;;;17.60;14.33;;;13.70;99.90;;;;;;5009494;28;20597;-70
2022/04/15 03:29:23;;;;;;;14.43;12.50;;;13.70;99.90;;;;;;5009009;28;20223;-69
2022/04/15 03:31:49;;;;;;;20.83;14.30;;;13.60;99.90;;;;;;5002378;28;20225;-69
2022/04/15 03:34:15;;;;;;;21.10;14.77;;;13.60;99.90;;;;;;5016704;28;20251;-69
2022/04/15 03:36:45;;;;;;;20.67;14.20;;;13.60;99.90;;;;;;5010386;28;20225;-69
2022/04/15 03:39:11;;;;;;;22.00;15.70;;;13.60;99.90;;;;;;5010376;28;20601;-69
2022/04/15 03:41:37;;;;;;;18.27;14.03;;;13.50;99.90;;;;;;5017151;28;20991;-69
2022/04/15 03:44:04;;;;;;;21.70;15.33;;;13.50;99.90;;;;;;5010786;28;20467;-70
2022/04/15 03:46:29;;;;;;;24.53;15.13;;;13.50;99.90;;;;;;5012304;28;20225;-66
2022/04/15 03:48:55;;;;;;;20.23;14.17;;;13.50;99.90;;;;;;5010454;28;20466;-70
2022/04/15 03:51:21;;;;;;;26.87;19.37;;;13.40;99.90;;;;;;4990671;28;20732;-69
2022/04/15 03:53:46;;;;;;;24.70;18.27;;;13.40;99.90;;;;;;5013707;28;20225;-69
2022/04/15 03:56:12;;;;;;;24.27;16.83;;;13.40;99.90;;;;;;5016711;28;20220;-68
2022/04/15 03:58:38;;;;;;;21.50;16.07;;;13.40;99.90;;;;;;5009529;28;20273;-69
2022/04/15 04:01:03;;;;;;;23.23;16.33;;;13.40;99.90;;;;;;5015914;28;20228;-69
2022/04/15 04:03:29;;;;;;;23.73;15.97;;;13.40;99.90;;;;;;5004845;28;20266;-70
2022/04/15 04:05:55;;;;;;;20.80;14.60;;;13.40;99.90;;;;;;5009520;28;20631;-68
2022/04/15 04:08:20;;;;;;;25.43;15.10;;;13.40;99.90;;;;;;5027445;28;20231;-69
2022/04/15 04:10:46;;;;;;;22.23;16.00;;;13.40;99.90;;;;;;5018897;28;20286;-69
2022/04/15 04:13:12;;;;;;;20.37;15.00;;;13.40;99.90;;;;;;5005591;28;20259;-70
2022/04/15 04:15:37;;;;;;;21.30;16.23;;;13.40;99.90;;;;;;5018373;28;20216;-71
2022/04/15 04:18:03;;;;;;;25.80;16.73;;;13.40;99.90;;;;;;5028718;28;20712;-69
2022/04/15 04:20:30;;;;;;;23.97;16.03;;;13.40;99.90;;;;;;5024272;28;20676;-69
2022/04/15 04:22:56;;;;;;;25.03;16.33;;;13.40;99.90;;;;;;5020380;28;20324;-70
2022/04/15 04:25:22;;;;;;;22.63;15.83;;;13.30;99.90;;;;;;5029232;28;21022;-68
2022/04/15 04:27:48;;;;;;;24.23;16.00;;;13.30;99.90;;;;;;5008285;28;20304;-71
2022/04/15 04:30:14;;;;;;;26.43;17.30;;;13.20;99.90;;;;;;5013288;28;20257;-69
2022/04/15 04:32:42;;;;;;;23.73;17.50;;;13.20;99.90;;;;;;4992453;28;20475;-70
2022/04/15 04:35:08;;;;;;;27.33;18.70;;;13.20;99.90;;;;;;5008843;28;20876;-69
2022/04/15 04:37:34;;;;;;;25.37;17.57;;;13.20;99.90;;;;;;5011058;28;20471;-68
2022/04/15 04:40:00;;;;;;;24.77;17.20;;;13.20;99.90;;;;;;5015254;28;20444;-68
2022/04/15 04:42:27;;;;;;;25.40;16.50;;;13.30;99.90;;;;;;5012415;28;20535;-68
2022/04/15 04:44:53;;;;;;;24.20;17.07;;;13.30;99.90;;;;;;5016984;28;20523;-68
2022/04/15 04:47:20;;;;;;;23.23;15.53;;;13.30;99.90;;;;;;5013506;28;20460;-69
2022/04/15 04:49:46;;;;;;;24.70;16.33;;;13.30;99.90;;;;;;4995089;28;20551;-69
2022/04/15 04:52:12;;;;;;;23.63;15.37;;;13.30;99.90;;;;;;5016876;28;20528;-70
2022/04/15 04:54:38;;;;;;;25.23;15.43;;;13.30;99.90;;;;;;5017014;28;20535;-69
2022/04/15 04:57:04;;;;;;;31.13;17.73;;;13.30;99.90;;;;;;5012359;28;20475;-68
2022/04/15 04:59:32;;;;;;;22.37;15.00;;;13.30;99.90;;;;;;5014954;28;20459;-68
2022/04/15 05:01:58;;;;;;;20.30;16.00;;;13.30;99.90;;;;;;5014882;28;20245;-71
2022/04/15 05:04:24;;;;;;;22.83;15.90;;;13.20;99.90;;;;;;5012742;28;20455;-68
2022/04/15 05:06:50;;;;;;;22.50;16.57;;;13.20;99.90;;;;;;5027135;28;20554;-69
2022/04/15 05:09:16;;;;;;;25.80;18.43;;;13.20;99.90;;;;;;5014911;28;20538;-73
2022/04/15 05:11:42;;;;;;;28.80;17.33;;;13.20;99.90;;;;;;5010889;28;20228;-69
2022/04/15 05:14:07;;;;;;;22.17;16.13;;;13.20;99.90;;;;;;5005222;28;20818;-69
2022/04/15 05:16:33;;;;;;;23.63;17.87;;;13.20;99.90;;;;;;5019807;28;20515;-68
2022/04/15 05:18:59;;;;;;;26.43;18.20;;;13.20;99.90;;;;;;5012989;28;20347;-66
2022/04/15 05:21:24;;;;;;;25.87;17.30;;;13.20;99.90;;;;;;5014003;28;20228;-68
2022/04/15 05:23:50;;;;;;;23.93;16.77;;;13.20;99.90;;;;;;5011589;28;20213;-70
2022/04/15 05:26:16;;;;;;;26.03;18.60;;;13.20;99.90;;;;;;5012717;28;20225;-69
2022/04/15 05:28:42;;;;;;;28.53;19.80;;;13.20;99.90;;;;;;5006828;28;20228;-69
2022/04/15 05:31:09;;;;;;;23.20;16.37;;;13.20;99.90;;;;;;5011293;28;20312;-68
2022/04/15 05:33:35;;;;;;;28.53;18.50;;;13.10;99.90;;;;;;5012632;28;20452;-70
2022/04/15 05:36:01;;;;;;;28.20;18.63;;;13.10;99.90;;;;;;5012277;28;20462;-71
2022/04/15 05:38:26;;;;;;;28.33;19.00;;;13.00;99.90;;;;;;5012477;28;20549;-69
2022/04/15 05:40:52;;;;;;;26.00;18.80;;;13.00;99.90;;;;;;5011643;28;20225;-68
2022/04/15 05:43:18;;;;;;;29.77;17.60;;;12.90;99.90;;;;;;5013741;28;20217;-68
2022/04/15 05:45:44;;;;;;;26.00;17.70;;;12.90;99.90;;;;;;5009887;28;20245;-68
2022/04/15 05:48:09;;;;;;;26.27;18.40;;;12.90;99.90;;;;;;5008942;28;20225;-71
2022/04/15 05:50:35;;;;;;;31.47;18.77;;;12.90;99.90;;;;;;5010356;28;20260;-70
2022/04/15 05:53:01;;;;;;;29.30;18.90;;;12.90;99.90;;;;;;5011884;28;20640;-70
2022/04/15 05:55:27;;;;;;;29.03;18.57;;;12.90;99.90;;;;;;5008360;28;20720;-68
2022/04/15 05:57:52;;;;;;;23.27;17.60;;;12.90;99.90;;;;;;5009892;28;20225;-69
2022/04/15 06:00:19;;;;;;;30.13;19.00;;;12.90;99.90;;;;;;5015324;28;20224;-68
2022/04/15 06:02:44;;;;;;;25.13;17.63;;;12.90;99.90;;;;;;5011496;28;20221;-69
2022/04/15 06:05:10;;;;;;;26.00;16.40;;;12.90;99.90;;;;;;5013029;28;20501;-68
2022/04/15 06:07:36;;;;;;;27.23;17.20;;;13.00;99.90;;;;;;5027398;28;20248;-70
2022/04/15 06:10:03;;;;;;;28.97;19.30;;;13.00;99.90;;;;;;5010975;28;20224;-70
2022/04/15 06:12:54;;;;;;;27.10;18.77;;;13.00;99.90;;;;;;5009554;28;20213;-69
2022/04/15 06:15:28;;;;;;;25.30;18.23;;;13.10;99.90;;;;;;5009868;28;20456;-70
2022/04/15 06:17:54;;;;;;;27.90;15.63;;;13.10;99.90;;;;;;5011281;28;20595;-68
2022/04/15 06:20:20;;;;;;;23.60;16.47;;;13.10;99.90;;;;;;5008287;28;20464;-69
2022/04/15 06:22:45;;;;;;;25.80;17.47;;;13.10;99.90;;;;;;4997722;28;20229;-69
2022/04/15 06:25:11;;;;;;;22.07;16.90;;;13.10;99.90;;;;;;5001521;28;20599;-68
2022/04/15 06:27:38;;;;;;;25.90;15.90;;;13.20;99.90;;;;;;5010719;28;20221;-69
2022/04/15 06:30:05;;;;;;;23.27;16.30;;;13.20;99.90;;;;;;4989976;28;20464;-70
2022/04/15 06:32:30;;;;;;;24.10;15.60;;;13.20;99.90;;;;;;5007286;28;20474;-70
2022/04/15 06:34:56;;;;;;;22.50;16.63;;;13.20;99.90;;;;;;5011875;28;20895;-69
2022/04/15 06:37:22;;;;;;;23.00;15.90;;;13.30;99.90;;;;;;5010050;28;20229;-69
2022/04/15 06:39:50;;;;;;;20.57;15.57;;;13.30;99.90;;;;;;5023269;28;20274;-69
2022/04/15 06:42:26;;;;;;;22.27;14.97;;;13.40;99.90;;;;;;5016673;28;20233;-68
2022/04/15 06:44:52;;;;;;;21.17;15.80;;;13.40;99.90;;;;;;5010968;28;20480;-70
2022/04/15 06:47:18;;;;;;;19.93;15.03;;;13.50;99.90;;;;;;5006444;28;20510;-72
2022/04/15 06:49:47;;;;;;;23.27;15.20;;;13.50;99.90;;;;;;5011086;28;20875;-69
2022/04/15 06:52:14;;;;;;;24.67;15.97;;;13.50;99.90;;;;;;5012944;28;20216;-66
2022/04/15 06:54:41;;;;;;;20.57;13.53;;;13.50;99.90;;;;;;5008456;28;20457;-69
2022/04/15 06:57:06;;;;;;;23.00;15.97;;;13.60;99.90;;;;;;5009203;28;20851;-66
2022/04/15 06:59:32;;;;;;;23.40;16.93;;;13.60;99.90;;;;;;5010057;28;20456;-69
2022/04/15 07:01:59;;;;;;;17.17;13.50;;;13.60;99.90;;;;;;5011837;28;20233;-70
2022/04/15 07:04:25;;;;;;;23.50;14.90;;;13.70;99.90;;;;;;4992340;28;20220;-68
2022/04/15 07:06:51;;;;;;;19.40;14.30;;;13.70;99.90;;;;;;5011768;28;20476;-69
2022/04/15 07:09:17;;;;;;;17.73;12.73;;;13.80;99.90;;;;;;5008924;28;21048;-70
2022/04/15 07:11:43;;;;;;;18.07;13.60;;;13.80;99.90;;;;;;5008282;28;20456;-68
2022/04/15 07:14:09;;;;;;;17.37;12.50;;;13.90;99.90;;;;;;4989770;28;20217;-69
2022/04/15 07:16:34;;;;;;;15.50;11.70;;;13.90;99.90;;;;;;5004159;28;20471;-69
2022/04/15 07:19:07;;;;;;;15.60;11.23;;;14.00;99.90;;;;;;4992045;28;20282;-72
2022/04/15 07:21:36;;;;;;;18.17;14.00;;;14.00;99.90;;;;;;5005171;28;20224;-71
2022/04/15 07:24:03;;;;;;;37.80;22.50;;;14.10;99.90;;;;;;5023101;28;20473;-71
2022/04/15 07:26:29;;;;;;;19.60;13.30;;;14.10;99.90;;;;;;5006049;28;20476;-69
2022/04/15 07:28:55;;;;;;;19.07;11.77;;;14.20;99.90;;;;;;5005824;28;20465;-69
2022/04/15 07:31:21;;;;;;;15.40;11.50;;;14.30;99.90;;;;;;5007508;28;20456;-71
2022/04/15 07:33:47;;;;;;;16.00;10.57;;;14.40;99.90;;;;;;5004908;28;20249;-71
2022/04/15 07:36:42;;;;;;;16.60;11.50;;;14.40;99.90;;;;;;5005605;28;20546;-71
2022/04/15 07:39:10;;;;;;;15.57;10.20;;;14.50;99.90;;;;;;5006101;28;20383;-69
2022/04/15 07:41:37;;;;;;;14.03;9.90;;;14.50;99.90;;;;;;5003429;28;20472;-69
2022/04/15 07:44:08;;;;;;;15.23;9.87;;;14.60;99.90;;;;;;5007567;28;20961;-68
2022/04/15 07:46:35;;;;;;;15.60;9.53;;;14.60;99.90;;;;;;5001192;28;20919;-69
2022/04/15 07:49:01;;;;;;;13.20;8.90;;;14.70;99.90;;;;;;5008246;28;20472;-68
2022/04/15 07:51:27;;;;;;;11.70;8.70;;;14.80;99.90;;;;;;5006121;28;20610;-69
2022/04/15 07:53:52;;;;;;;13.20;9.10;;;14.90;99.90;;;;;;5007409;28;20221;-69
2022/04/15 07:56:18;;;;;;;10.60;7.77;;;14.90;99.90;;;;;;5006499;28;20224;-69
2022/04/15 07:58:44;;;;;;;7.23;6.50;;;14.90;99.90;;;;;;5005453;28;20244;-69
2022/04/15 08:01:10;;;;;;;9.17;7.10;;;15.00;99.90;;;;;;5005086;28;20232;-68
2022/04/15 08:03:36;;;;;;;9.37;6.93;;;15.10;99.90;;;;;;5021124;28;20213;-69
2022/04/15 08:06:03;;;;;;;9.70;8.23;;;15.20;99.90;;;;;;5006744;28;20476;-69
2022/04/15 08:08:29;;;;;;;9.83;6.80;;;15.30;99.90;;;;;;5009971;28;20480;-69
2022/04/15 08:10:56;;;;;;;8.03;5.60;;;15.30;99.90;;;;;;5007261;28;20464;-69
2022/04/15 08:13:21;;;;;;;8.73;7.23;;;15.40;99.90;;;;;;5005759;28;20472;-68
2022/04/15 08:15:53;;;;;;;10.67;8.07;;;15.50;99.90;;;;;;5009458;28;20521;-68
2022/04/15 08:18:19;;;;;;;10.10;7.27;;;15.50;99.90;;;;;;5008618;28;20213;-69
2022/04/15 08:20:45;;;;;;;9.03;6.77;;;15.60;99.90;;;;;;5010474;28;20464;-70
2022/04/15 08:23:11;;;;;;;7.17;6.33;;;15.60;99.90;;;;;;5006285;28;20460;-70
2022/04/15 08:25:37;;;;;;;8.00;6.40;;;15.60;99.90;;;;;;5010363;28;20213;-70
2022/04/15 08:28:04;;;;;;;7.33;5.53;;;15.70;99.90;;;;;;5010555;28;20225;-70
2022/04/15 08:30:33;;;;;;;6.27;4.93;;;15.70;99.90;;;;;;5008621;28;20220;-71
2022/04/15 08:32:59;;;;;;;5.23;4.57;;;15.80;99.90;;;;;;5012665;28;20852;-72
2022/04/15 08:35:25;;;;;;;6.10;5.50;;;15.90;99.90;;;;;;5010515;28;20467;-71
2022/04/15 08:37:50;;;;;;;7.00;6.30;;;15.90;99.90;;;;;;5011231;28;20448;-69
2022/04/15 08:40:16;;;;;;;6.90;4.80;;;16.00;99.90;;;;;;5013308;28;20224;-71
2022/04/15 08:42:43;;;;;;;5.30;4.50;;;16.00;99.90;;;;;;5011104;28;20229;-69
2022/04/15 08:45:10;;;;;;;8.17;5.27;;;16.10;99.90;;;;;;5013328;28;20245;-70
2022/04/15 08:47:40;;;;;;;6.77;5.27;;;16.20;99.90;;;;;;5012678;28;20906;-70
2022/04/15 08:50:10;;;;;;;9.00;5.10;;;16.20;99.90;;;;;;5009252;28;20870;-71
2022/04/15 08:52:36;;;;;;;4.73;4.13;;;16.30;99.90;;;;;;5010318;28;20472;-71
2022/04/15 08:55:03;;;;;;;5.00;4.30;;;16.30;99.90;;;;;;5013832;28;20455;-70
2022/04/15 08:57:29;;;;;;;4.07;3.20;;;16.30;99.90;;;;;;5009833;28;20480;-69
2022/04/15 08:59:55;;;;;;;3.80;3.40;;;16.30;99.90;;;;;;5018886;28;20461;-70
2022/04/15 09:02:37;;;;;;;3.70;3.30;;;16.50;99.90;;;;;;4998699;28;20339;-68
2022/04/15 09:05:04;;;;;;;4.67;3.50;;;16.60;99.90;;;;;;5012466;28;20221;-70
2022/04/15 09:07:34;;;;;;;5.53;2.50;;;16.70;99.90;;;;;;5024990;28;20460;-69
2022/04/15 09:10:01;;;;;;;3.90;2.40;;;16.80;99.90;;;;;;5012861;28;20456;-70
2022/04/15 09:12:29;;;;;;;2.30;2.10;;;16.90;99.90;;;;;;5011979;28;20460;-70
2022/04/15 09:14:59;;;;;;;2.73;2.27;;;16.90;99.90;;;;;;5024412;28;20521;-69
2022/04/15 09:17:28;;;;;;;3.00;2.70;;;16.80;99.90;;;;;;5028766;28;20470;-70
2022/04/15 09:19:55;;;;;;;3.90;2.50;;;16.90;99.90;;;;;;5011778;28;20535;-70
2022/04/15 09:22:21;;;;;;;2.73;2.53;;;17.00;99.90;;;;;;5018220;28;20514;-70
2022/04/15 09:24:47;;;;;;;2.00;1.90;;;17.10;99.90;;;;;;5027604;28;20455;-70
2022/04/15 09:27:14;;;;;;;2.50;2.30;;;17.10;99.90;;;;;;5017510;28;20301;-67
2022/04/15 09:29:41;;;;;;;2.50;2.30;;;17.10;99.90;;;;;;4994308;28;20467;-69
2022/04/15 09:32:09;;;;;;;2.07;1.97;;;17.20;99.90;;;;;;5008484;28;20464;-69
2022/04/15 09:34:55;;;;;;;2.90;2.67;;;17.20;99.90;;;;;;4993662;28;20508;-70
2022/04/15 09:37:21;;;;;;;1.90;1.80;;;17.40;99.90;;;;;;5014194;28;20506;-71
2022/04/15 09:40:14;;;;;;;2.13;1.90;;;17.50;99.90;;;;;;5017556;28;20455;-71
2022/04/15 09:42:48;;;;;;;1.93;1.63;;;17.60;99.90;;;;;;5022150;28;20468;-67
2022/04/15 09:45:19;;;;;;;2.03;1.50;;;17.70;99.90;;;;;;5015270;28;20452;-65
2022/04/15 09:47:54;;;;;;;2.20;2.00;;;18.00;99.90;;;;;;5009778;28;20476;-70
2022/04/15 09:50:25;;;;;;;2.57;2.37;;;18.00;99.90;;;;;;5021840;28;20462;-67
2022/04/15 09:52:51;;;;;;;4.27;2.03;;;18.00;99.90;;;;;;5021701;28;20457;-67
2022/04/15 09:55:23;;;;;;;3.00;2.03;;;18.00;99.90;;;;;;5020072;28;20464;-67
2022/04/15 09:57:50;;;;;;;1.80;1.50;;;17.80;99.90;;;;;;5021780;28;20831;-65
2022/04/15 10:00:18;;;;;;;2.03;1.83;;;17.80;99.80;;;;;;5018905;28;20463;-65
2022/04/15 10:02:44;;;;;;;2.13;1.93;;;17.90;99.90;;;;;;5017776;28;20479;-69
2022/04/15 10:05:12;;;;;;;1.60;1.40;;;18.10;99.90;;;;;;5006135;28;20544;-67
2022/04/15 10:07:40;;;;;;;2.50;1.80;;;18.10;99.70;;;;;;5002637;28;21062;-67
2022/04/15 10:10:09;;;;;;;2.20;1.50;;;18.10;99.70;;;;;;5008238;28;20457;-67
2022/04/15 10:12:41;;;;;;;6.43;1.67;;;18.20;99.60;;;;;;5007536;28;20824;-65
2022/04/15 10:15:09;;;;;;;1.60;1.50;;;18.20;99.20;;;;;;5011369;28;20460;-66
2022/04/15 10:17:39;;;;;;;1.40;1.30;;;18.20;99.90;;;;;;5007517;28;20838;-65
2022/04/15 10:20:09;;;;;;;2.30;2.10;;;18.30;99.60;;;;;;4989962;28;20984;-68
2022/04/15 10:22:38;;;;;;;1.80;1.70;;;18.40;99.60;;;;;;5006802;28;20472;-66
2022/04/15 10:25:06;;;;;;;3.07;1.63;;;18.30;99.20;;;;;;5009488;28;20542;-69
2022/04/15 10:27:32;;;;;;;1.53;1.43;;;18.40;99.90;;;;;;5011099;28;20562;-67
2022/04/15 10:30:19;;;;;;;1.00;1.00;;;18.60;99.90;;;;;;5009713;28;20463;-71
2022/04/15 10:32:55;;;;;;;1.53;1.43;;;18.80;99.60;;;;;;5007951;28;20468;-70
2022/04/15 10:35:29;;;;;;;2.20;1.70;;;18.60;97.90;;;;;;5005528;28;21014;-72
2022/04/15 10:38:11;;;;;;;1.20;1.10;;;18.70;99.10;;;;;;5014174;28;20455;-69
2022/04/15 10:40:43;;;;;;;1.60;1.20;;;18.80;99.40;;;;;;5016320;28;20468;-69
2022/04/15 10:43:22;;;;;;;1.17;1.03;;;19.00;99.40;;;;;;5014213;28;20887;-69
2022/04/15 10:45:48;;;;;;;1.00;1.00;;;19.10;98.20;;;;;;5001022;28;20476;-73
2022/04/15 10:48:28;;;;;;;1.37;1.27;;;19.10;97.70;;;;;;5003761;28;20519;-68
2022/04/15 10:50:54;;;;;;;1.33;1.10;;;19.20;98.10;;;;;;5006666;28;20448;-70
2022/04/15 10:53:23;;;;;;;1.10;1.00;;;19.30;98.30;;;;;;5008793;28;20512;-70
2022/04/15 10:55:52;;;;;;;1.53;1.43;;;19.30;97.40;;;;;;4990916;28;20291;-73
2022/04/15 10:58:19;;;;;;;1.00;0.90;;;19.10;96.70;;;;;;5009305;28;20452;-70
2022/04/15 11:01:14;;;;;;;1.43;1.13;;;19.10;96.70;;;;;;5010370;28;20448;-69
2022/04/15 11:03:41;;;;;;;1.40;1.30;;;18.90;96.70;;;;;;5008573;28;20460;-69
2022/04/15 11:06:09;;;;;;;3.23;1.10;;;18.90;97.50;;;;;;5001475;28;20452;-70
2022/04/15 11:08:51;;;;;;;1.20;1.10;;;19.20;97.30;;;;;;5009202;28;20472;-69
2022/04/15 11:11:18;;;;;;;2.93;1.07;;;19.40;97.40;;;;;;4992012;28;20470;-69
2022/04/15 11:13:44;;;;;;;1.00;1.00;;;19.60;97.90;;;;;;5009008;28;20448;-69
2022/04/15 11:16:14;;;;;;;1.30;1.20;;;19.90;97.70;;;;;;5023214;28;20970;-70
2022/04/15 11:18:58;;;;;;;1.30;1.20;;;20.00;97.20;;;;;;5017091;28;20642;-68
2022/04/15 11:21:39;;;;;;;1.50;1.40;;;20.10;97.60;;;;;;5025814;28;20469;-70
2022/04/15 11:24:09;;;;;;;1.47;1.37;;;20.20;96.40;;;;;;5020281;28;20477;-68
2022/04/15 11:26:37;;;;;;;1.80;1.30;;;20.20;96.80;;;;;;5021705;28;20467;-70
2022/04/15 11:29:06;;;;;;;1.30;1.30;;;20.10;96.70;;;;;;5006590;28;20974;-69
2022/04/15 11:31:32;;;;;;;1.80;1.43;;;20.30;96.50;;;;;;5006286;28;20459;-68
2022/04/15 11:34:06;;;;;;;4.03;1.53;;;20.50;96.60;;;;;;5009755;28;20827;-68
2022/04/15 11:36:37;;;;;;;1.70;1.60;;;20.60;96.60;;;;;;5006225;28;20301;-69
2022/04/15 11:39:06;;;;;;;1.90;1.80;;;20.50;96.60;;;;;;5005311;28;20456;-70
2022/04/15 11:41:33;;;;;;;2.40;2.00;;;20.50;95.90;;;;;;5023474;28;20468;-69
2022/04/15 11:44:00;;;;;;;2.93;2.33;;;20.20;95.70;;;;;;5010131;28;20979;-72
2022/04/15 11:46:27;;;;;;;2.57;1.77;;;20.30;96.10;;;;;;5014032;28;20462;-71
2022/04/15 11:48:55;;;;;;;1.73;1.40;;;20.50;96.90;;;;;;5006137;28;20552;-73
2022/04/15 11:51:23;;;;;;;1.50;1.40;;;20.70;96.40;;;;;;5007858;28;20468;-71
2022/04/15 11:53:50;;;;;;;1.97;1.73;;;20.80;96.70;;;;;;5010338;28;20456;-72
2022/04/15 11:56:16;;;;;;;1.90;1.80;;;21.00;96.40;;;;;;5008108;28;20452;-69
2022/04/15 11:58:43;;;;;;;1.97;1.87;;;21.10;96.30;;;;;;5007489;28;20452;-70
2022/04/15 12:01:09;;;;;;;1.80;1.70;;;21.20;96.60;;;;;;5009774;28;20221;-69
2022/04/15 12:03:38;;;;;;;2.00;1.90;;;21.20;96.40;;;;;;5009624;28;20455;-68
2022/04/15 12:06:06;;;;;;;2.93;1.83;;;21.20;96.20;;;;;;4989496;28;20218;-69
2022/04/15 12:08:31;;;;;;;1.90;1.80;;;21.30;95.80;;;;;;5021252;28;20963;-72
2022/04/15 12:10:58;;;;;;;2.80;1.90;;;21.20;96.10;;;;;;5017081;28;20518;-69
2022/04/15 12:13:23;;;;;;;1.77;1.67;;;21.20;96.30;;;;;;5013964;28;20234;-73
2022/04/15 12:15:49;;;;;;;2.87;2.10;;;21.20;96.00;;;;;;5018028;28;21418;-69
2022/04/15 12:18:15;;;;;;;2.03;1.93;;;21.20;95.60;;;;;;5004020;28;20708;-69
2022/04/15 12:20:42;;;;;;;2.90;2.70;;;21.20;95.70;;;;;;5000313;28;20217;-69
2022/04/15 12:23:16;;;;;;;2.67;2.10;;;20.90;95.40;;;;;;5003220;28;20359;-70
2022/04/15 12:31:29;;;;;;;3.60;2.30;;;20.90;95.40;;;;;;5012266;28;20462;-71
2022/04/15 12:33:55;;;;;;;3.60;2.33;;;20.90;95.60;;;;;;5017837;28;20518;-69
2022/04/15 12:36:20;;;;;;;4.47;3.00;;;21.00;95.40;;;;;;5007914;28;21385;-70
2022/04/15 12:39:04;;;;;;;3.20;2.90;;;20.80;94.90;;;;;;5020293;28;20225;-69
2022/04/15 12:41:41;;;;;;;2.80;2.53;;;20.90;95.50;;;;;;5019874;28;20248;-69
2022/04/15 12:44:18;;;;;;;2.03;1.93;;;21.00;94.90;;;;;;5020100;28;20470;-72